Time;durP1;ratioP1;P1;durP2;ratioP2;P2;SDS_P1;SDS_P2;PMS_P1;PMS_P2;Temp;Humidity;BMP_temperature;BMP_pressure;BME280_temperature;BME280_humidity;BME280_pressure;Samples;Min_cycle;Max_cycle;Signal;HPM_P1;HPM_P2
2024/01/23 00:02:01;;;;;;;26.07;19.97;;;;;;;-6.79;91.47;93729.16;5044049;28;20234;-76
2024/01/23 00:04:26;;;;;;;24.47;19.20;;;;;;;-6.77;91.14;93728.06;5046526;28;20222;-76
2024/01/23 00:06:52;;;;;;;20.67;17.97;;;;;;;-6.73;91.11;93731.91;5045982;28;20238;-75
2024/01/23 00:09:17;;;;;;;22.77;19.13;;;;;;;-6.82;91.27;93714.22;5046459;28;20205;-76
2024/01/23 00:11:43;;;;;;;28.13;20.23;;;;;;;-6.67;90.52;93727.97;5060867;28;20304;-76
2024/01/23 00:14:08;;;;;;;32.40;21.83;;;;;;;-6.59;90.90;93729.75;5046217;28;20577;-75
2024/01/23 00:16:34;;;;;;;37.20;21.60;;;;;;;-6.63;90.80;93733.53;5045906;28;20237;-76
2024/01/23 00:18:59;;;;;;;31.43;21.47;;;;;;;-6.71;91.63;93734.28;5046262;28;20242;-74
2024/01/23 00:21:24;;;;;;;31.50;21.67;;;;;;;-6.82;92.54;93730.22;5045949;28;20198;-75
2024/01/23 00:23:51;;;;;;;37.13;21.53;;;;;;;-6.98;92.63;93703.94;5045885;28;21010;-75
2024/01/23 00:26:16;;;;;;;33.13;22.27;;;;;;;-6.85;92.32;93710.22;5046337;28;20201;-75
2024/01/23 00:28:42;;;;;;;37.40;23.60;;;;;;;-6.86;91.68;93688.34;5045738;28;20179;-81
2024/01/23 00:31:07;;;;;;;34.87;22.77;;;;;;;-6.82;91.47;93699.78;5046236;28;20186;-76
2024/01/23 00:33:33;;;;;;;31.23;23.17;;;;;;;-6.62;90.87;93715.63;5045655;28;20210;-76
2024/01/23 00:35:58;;;;;;;39.73;22.73;;;;;;;-6.99;91.29;93682.06;5062018;28;20194;-76
2024/01/23 00:38:23;;;;;;;32.03;21.73;;;;;;;-6.96;92.02;93700.31;5044293;28;20615;-76
2024/01/23 00:40:49;;;;;;;34.00;21.63;;;;;;;-7.05;93.12;93682.66;5046252;28;20186;-76
2024/01/23 00:43:14;;;;;;;20.53;16.50;;;;;;;-6.95;92.71;93690.97;5045063;28;20233;-76
2024/01/23 00:45:39;;;;;;;15.17;13.97;;;;;;;-6.93;91.75;93686.53;5046049;28;20278;-76
2024/01/23 00:48:05;;;;;;;12.53;11.63;;;;;;;-6.97;90.80;93685.22;5045006;28;20237;-76
2024/01/23 00:50:30;;;;;;;11.30;10.70;;;;;;;-6.91;90.33;93687.19;5045930;28;20179;-76
2024/01/23 00:52:55;;;;;;;12.07;11.23;;;;;;;-6.91;90.53;93695.59;5044552;28;20222;-76
2024/01/23 00:55:21;;;;;;;10.93;10.27;;;;;;;-7.04;91.41;93681.69;5037664;28;20182;-76
2024/01/23 00:57:46;;;;;;;12.33;11.53;;;;;;;-7.02;92.67;93690.75;5031247;28;20218;-76
2024/01/23 01:00:12;;;;;;;15.60;14.17;;;;;;;-6.84;93.49;93688.19;5032422;28;20206;-76
2024/01/23 01:02:37;;;;;;;15.57;13.87;;;;;;;-6.96;93.47;93677.47;5031536;28;20295;-76
2024/01/23 01:05:03;;;;;;;19.07;14.53;;;;;;;-6.78;92.52;93667.28;5032159;28;20183;-77
2024/01/23 01:07:28;;;;;;;14.93;13.60;;;;;;;-6.77;90.95;93646.06;5031644;28;20230;-77
2024/01/23 01:09:54;;;;;;;13.10;11.80;;;;;;;-6.65;90.51;93677.84;5032189;28;20179;-76
2024/01/23 01:12:19;;;;;;;15.17;13.70;;;;;;;-6.70;89.89;93672.41;5031748;28;20221;-77
2024/01/23 01:14:44;;;;;;;15.43;13.87;;;;;;;-6.68;89.34;93680.69;5030593;28;20269;-76
2024/01/23 01:17:10;;;;;;;14.80;13.47;;;;;;;-6.90;89.52;93654.06;5031709;28;20265;-76
2024/01/23 01:19:35;;;;;;;15.33;13.70;;;;;;;-6.96;89.82;93647.00;5031469;28;20186;-76
2024/01/23 01:22:01;;;;;;;16.47;13.43;;;;;;;-6.91;90.12;93655.00;5030621;28;20234;-76
2024/01/23 01:24:26;;;;;;;17.50;15.40;;;;;;;-6.87;90.88;93660.56;5031402;28;20195;-76
2024/01/23 01:26:51;;;;;;;17.73;15.93;;;;;;;-6.88;91.39;93648.84;5046261;28;20227;-76
2024/01/23 01:29:17;;;;;;;18.20;14.97;;;;;;;-7.01;91.85;93639.06;5031677;28;20183;-76
2024/01/23 01:31:42;;;;;;;17.37;15.70;;;;;;;-6.82;91.27;93658.38;5031385;28;20234;-76
2024/01/23 01:34:07;;;;;;;18.53;16.77;;;;;;;-6.83;90.21;93647.44;5031505;28;20206;-76
2024/01/23 01:36:33;;;;;;;16.33;14.97;;;;;;;-6.59;88.91;93645.97;5031353;28;20234;-77
2024/01/23 01:39:01;;;;;;;15.87;14.40;;;;;;;-6.74;88.38;93638.13;5031293;28;20179;-77
2024/01/23 01:41:26;;;;;;;15.93;14.53;;;;;;;-6.72;88.71;93638.75;5027522;28;20195;-80
2024/01/23 01:43:51;;;;;;;17.00;15.30;;;;;;;-6.74;88.80;93643.22;5030879;28;20281;-78
2024/01/23 01:46:20;;;;;;;17.00;14.97;;;;;;;-6.82;89.48;93645.69;5031558;28;20214;-77
2024/01/23 01:48:47;;;;;;;14.33;13.03;;;;;;;-6.97;89.44;93622.59;5031056;28;20190;-77
2024/01/23 01:51:14;;;;;;;13.47;12.40;;;;;;;-6.81;88.97;93639.66;5029299;28;20210;-77
2024/01/23 01:53:41;;;;;;;13.03;12.03;;;;;;;-7.15;88.74;93595.69;5031118;28;20225;-77
2024/01/23 01:56:07;;;;;;;14.90;13.50;;;;;;;-6.93;88.76;93640.88;5031040;28;20185;-78
2024/01/23 01:58:34;;;;;;;15.10;13.47;;;;;;;-6.91;89.32;93632.16;5030864;28;20970;-77
2024/01/23 02:01:00;;;;;;;16.37;13.60;;;;;;;-7.05;90.69;93635.22;5031172;28;20183;-78
2024/01/23 02:03:27;;;;;;;16.60;15.03;;;;;;;-7.07;90.66;93628.72;5030634;28;20345;-78
2024/01/23 02:05:52;;;;;;;22.40;18.00;;;;;;;-6.99;90.37;93633.84;5026431;28;20202;-77
2024/01/23 02:08:18;;;;;;;19.23;16.70;;;;;;;-7.05;91.12;93604.00;5030321;28;20722;-78
2024/01/23 02:10:44;;;;;;;25.73;18.23;;;;;;;-6.88;90.47;93626.00;5030884;28;20198;-77
2024/01/23 02:13:09;;;;;;;26.83;17.73;;;;;;;-6.88;90.56;93615.84;5030538;28;20231;-77
2024/01/23 02:15:35;;;;;;;21.30;17.60;;;;;;;-6.81;90.61;93616.81;5030504;28;20194;-78
2024/01/23 02:18:01;;;;;;;21.07;17.53;;;;;;;-6.93;90.45;93606.16;5030456;28;20210;-77
2024/01/23 02:20:26;;;;;;;21.50;16.83;;;;;;;-6.89;89.86;93619.31;5030767;28;20209;-77
2024/01/23 02:22:53;;;;;;;21.17;18.53;;;;;;;-6.83;89.90;93613.63;5030342;28;20230;-77
2024/01/23 02:25:18;;;;;;;20.97;17.87;;;;;;;-6.71;89.09;93608.16;5030997;28;20748;-77
2024/01/23 02:27:43;;;;;;;19.03;16.93;;;;;;;-6.67;88.89;93616.25;5030103;28;20229;-77
2024/01/23 02:30:09;;;;;;;20.17;17.00;;;;;;;-6.79;88.90;93607.31;5030552;28;20333;-77
2024/01/23 02:32:35;;;;;;;21.47;16.07;;;;;;;-6.75;89.32;93614.47;5026999;28;20230;-77
2024/01/23 02:35:00;;;;;;;16.50;15.00;;;;;;;-6.80;89.88;93610.78;5030401;28;20191;-78
2024/01/23 02:37:25;;;;;;;15.00;13.50;;;;;;;-6.68;89.96;93595.16;5030068;28;20282;-78
2024/01/23 02:39:51;;;;;;;15.27;13.80;;;;;;;-6.66;89.28;93587.38;5030388;28;20186;-77
2024/01/23 02:42:16;;;;;;;12.77;11.67;;;;;;;-6.60;89.59;93596.97;5021843;28;20227;-78
2024/01/23 02:44:45;;;;;;;15.00;13.83;;;;;;;-6.55;89.23;93599.03;5031287;28;20218;-77
2024/01/23 02:47:11;;;;;;;12.47;11.67;;;;;;;-6.66;89.34;93597.53;5029652;28;20234;-77
2024/01/23 02:49:36;;;;;;;13.77;12.77;;;;;;;-6.67;88.97;93578.19;5029677;28;20175;-77
2024/01/23 02:52:03;;;;;;;13.37;12.33;;;;;;;-6.94;89.38;93578.38;5029480;28;20210;-78
2024/01/23 02:54:30;;;;;;;14.50;13.13;;;;;;;-6.89;89.43;93576.16;5045914;28;20266;-77
2024/01/23 02:56:55;;;;;;;12.17;11.47;;;;;;;-6.90;88.97;93557.63;5029899;28;20226;-77
2024/01/23 02:59:21;;;;;;;11.87;11.07;;;;;;;-6.81;88.41;93571.13;5030283;28;20205;-77
2024/01/23 03:01:46;;;;;;;12.73;11.87;;;;;;;-6.93;89.30;93572.34;5029931;28;20265;-77
2024/01/23 03:04:11;;;;;;;12.03;11.30;;;;;;;-6.95;88.75;93564.09;5029368;28;20218;-78
2024/01/23 03:06:37;;;;;;;12.83;12.10;;;;;;;-6.94;89.62;93561.41;5029919;28;20245;-77
2024/01/23 03:09:02;;;;;;;13.10;12.30;;;;;;;-6.93;90.37;93564.75;5045523;28;20218;-77
2024/01/23 03:11:28;;;;;;;14.00;12.97;;;;;;;-7.10;89.35;93523.28;5029723;28;20198;-77
2024/01/23 03:13:54;;;;;;;12.43;11.70;;;;;;;-7.04;90.42;93529.47;5025784;28;20225;-78
2024/01/23 03:16:19;;;;;;;12.63;11.73;;;;;;;-6.97;89.97;93510.97;5029964;28;20197;-78
2024/01/23 03:18:46;;;;;;;10.97;10.40;;;;;;;-6.87;89.26;93543.84;5029604;28;20179;-77
2024/01/23 03:21:11;;;;;;;12.57;11.77;;;;;;;-6.98;90.17;93533.94;5029338;28;20186;-76
2024/01/23 03:23:37;;;;;;;13.20;12.30;;;;;;;-6.91;89.18;93530.66;5029028;28;20221;-76
2024/01/23 03:26:02;;;;;;;15.23;13.87;;;;;;;-6.79;88.60;93537.06;5028628;28;20257;-77
2024/01/23 03:28:28;;;;;;;13.63;12.63;;;;;;;-6.76;88.43;93530.88;5029416;28;20265;-79
2024/01/23 03:30:53;;;;;;;15.97;14.27;;;;;;;-6.82;88.04;93511.97;5029920;28;20183;-76
2024/01/23 03:33:19;;;;;;;17.40;15.80;;;;;;;-6.94;89.26;93504.81;5029285;28;20218;-76
2024/01/23 03:35:44;;;;;;;16.50;14.90;;;;;;;-6.89;90.26;93521.16;5030175;28;20190;-77
2024/01/23 03:38:10;;;;;;;15.93;14.27;;;;;;;-6.95;89.84;93513.34;5029344;28;20211;-77
2024/01/23 03:40:36;;;;;;;16.17;14.67;;;;;;;-7.10;90.74;93505.53;5029357;28;20879;-77
2024/01/23 03:43:01;;;;;;;15.77;14.47;;;;;;;-6.98;91.01;93521.25;5028893;28;20222;-76
2024/01/23 03:45:26;;;;;;;15.77;14.17;;;;;;;-6.96;89.31;93494.00;5025025;28;20585;-76
2024/01/23 03:47:52;;;;;;;19.70;17.10;;;;;;;-7.03;89.65;93495.53;5028767;28;20319;-76
2024/01/23 03:50:17;;;;;;;19.50;17.60;;;;;;;-7.07;88.74;93466.38;5029566;28;20205;-76
2024/01/23 03:52:43;;;;;;;20.40;18.23;;;;;;;-6.88;90.18;93501.66;5028430;28;20290;-76
2024/01/23 03:55:08;;;;;;;24.00;17.80;;;;;;;-7.01;89.68;93491.94;5029401;28;20190;-76
2024/01/23 03:57:33;;;;;;;27.30;19.50;;;;;;;-7.02;91.19;93504.75;5029058;28;20223;-76
2024/01/23 03:59:59;;;;;;;25.60;18.97;;;;;;;-7.15;91.94;93479.00;5029413;28;20207;-76
2024/01/23 04:02:25;;;;;;;22.47;18.43;;;;;;;-6.93;90.48;93491.16;5028153;28;20242;-76
2024/01/23 04:04:51;;;;;;;28.20;20.13;;;;;;;-7.06;91.00;93471.28;5029446;28;20179;-77
2024/01/23 04:07:16;;;;;;;25.43;20.23;;;;;;;-6.88;91.59;93484.66;5029005;28;20234;-77
2024/01/23 04:09:42;;;;;;;26.83;18.87;;;;;;;-6.88;89.87;93486.44;5022457;28;20187;-76
2024/01/23 04:12:07;;;;;;;45.63;25.00;;;;;;;-7.09;89.41;93475.88;5029032;28;20222;-76
2024/01/23 04:14:33;;;;;;;36.97;23.77;;;;;;;-7.05;90.45;93484.78;5029338;28;20293;-76
2024/01/23 04:16:58;;;;;;;31.97;23.13;;;;;;;-7.08;91.61;93495.22;5028982;28;20256;-76
2024/01/23 04:19:23;;;;;;;26.60;19.23;;;;;;;-6.99;90.25;93479.09;5029457;28;20199;-76
2024/01/23 04:21:49;;;;;;;19.50;17.03;;;;;;;-7.19;89.95;93477.75;5028338;28;20286;-76
2024/01/23 04:24:14;;;;;;;25.87;18.77;;;;;;;-7.21;89.96;93485.50;5027846;28;20286;-76
2024/01/23 04:26:48;;;;;;;28.10;19.40;;;;;;;-7.17;90.84;93491.84;5028658;28;20227;-76
2024/01/23 04:29:14;;;;;;;23.97;19.53;;;;;;;-7.18;91.42;93475.06;5029000;28;20182;-76
2024/01/23 04:31:40;;;;;;;27.03;19.40;;;;;;;-7.29;90.68;93461.81;5031935;28;20236;-76
2024/01/23 04:34:06;;;;;;;25.63;19.73;;;;;;;-7.12;91.02;93483.78;5031755;28;20210;-77
2024/01/23 04:36:31;;;;;;;21.93;18.67;;;;;;;-7.17;90.45;93476.63;5032055;28;20322;-76
2024/01/23 04:38:56;;;;;;;17.77;16.00;;;;;;;-7.09;89.71;93478.41;5032689;28;20206;-76
2024/01/23 04:41:24;;;;;;;15.77;14.17;;;;;;;-7.07;89.45;93471.44;5032324;28;20213;-75
2024/01/23 04:43:50;;;;;;;18.67;15.50;;;;;;;-7.12;89.84;93471.09;5031821;28;20231;-75
2024/01/23 04:46:15;;;;;;;23.93;16.57;;;;;;;-7.09;89.25;93468.25;5032303;28;20193;-74
2024/01/23 04:48:41;;;;;;;21.30;16.87;;;;;;;-7.15;89.38;93468.88;5032527;28;20224;-74
2024/01/23 04:51:06;;;;;;;17.10;15.50;;;;;;;-7.31;91.13;93461.19;5031974;28;20174;-73
2024/01/23 04:53:32;;;;;;;13.80;12.73;;;;;;;-7.25;90.73;93479.13;5028351;28;20310;-74
2024/01/23 04:55:59;;;;;;;14.73;13.30;;;;;;;-7.15;89.67;93469.66;5030348;28;20187;-75
2024/01/23 04:58:24;;;;;;;17.07;15.60;;;;;;;-7.26;89.66;93482.63;5030777;28;20223;-78
2024/01/23 05:00:49;;;;;;;15.67;14.10;;;;;;;-7.44;91.20;93481.88;5031429;28;20241;-72
2024/01/23 05:03:15;;;;;;;15.33;13.93;;;;;;;-7.47;91.15;93483.94;5031208;28;20223;-71
2024/01/23 05:05:40;;;;;;;19.60;16.97;;;;;;;-7.51;91.43;93480.09;5031120;28;20201;-74
2024/01/23 05:08:06;;;;;;;17.93;16.17;;;;;;;-7.55;91.33;93477.09;5031132;28;20215;-73
2024/01/23 05:10:32;;;;;;;18.13;15.47;;;;;;;-7.77;91.70;93476.75;5031529;28;20187;-74
2024/01/23 05:12:57;;;;;;;16.13;14.53;;;;;;;-7.76;91.60;93478.34;5031077;28;20226;-75
2024/01/23 05:15:23;;;;;;;14.20;13.10;;;;;;;-7.72;91.30;93474.59;5032146;28;20230;-75
2024/01/23 05:17:48;;;;;;;13.87;12.77;;;;;;;-7.66;91.59;93469.72;5029938;28;20250;-81
2024/01/23 05:20:14;;;;;;;12.83;11.90;;;;;;;-7.57;91.69;93473.88;5029363;28;20213;-77
2024/01/23 05:22:40;;;;;;;12.47;11.67;;;;;;;-7.59;91.06;93480.84;5030448;28;20325;-76
2024/01/23 05:25:06;;;;;;;12.27;11.57;;;;;;;-7.64;91.78;93461.97;5030971;28;20193;-74
2024/01/23 05:27:31;;;;;;;12.57;11.67;;;;;;;-7.69;92.78;93464.16;5030698;28;20621;-74
2024/01/23 05:29:57;;;;;;;12.37;11.67;;;;;;;-7.47;93.64;93477.09;5031039;28;20182;-76
2024/01/23 05:32:22;;;;;;;13.47;12.67;;;;;;;-7.42;92.58;93466.50;5030460;28;20214;-73
2024/01/23 05:34:48;;;;;;;11.53;10.83;;;;;;;-7.44;92.30;93460.81;5025461;28;20214;-76
2024/01/23 05:37:13;;;;;;;13.70;13.00;;;;;;;-7.07;98.56;93466.38;5030444;28;20234;-75
2024/01/23 05:39:39;;;;;;;11.13;10.63;;;;;;;-7.01;96.89;93465.75;5030171;28;20190;-77
2024/01/23 05:42:06;;;;;;;11.97;11.27;;;;;;;-7.34;94.10;93433.59;5029659;28;20222;-76
2024/01/23 05:44:35;;;;;;;13.23;12.27;;;;;;;-7.28;93.84;93448.19;5029478;28;20211;-75
2024/01/23 05:47:00;;;;;;;15.63;14.27;;;;;;;-7.16;93.65;93454.59;5029706;28;20227;-75
2024/01/23 05:49:26;;;;;;;16.73;15.43;;;;;;;-7.20;92.62;93427.94;5030048;28;20201;-75
2024/01/23 05:51:51;;;;;;;16.20;14.80;;;;;;;-7.02;92.82;93464.19;5029470;28;20281;-75
2024/01/23 05:54:16;;;;;;;18.40;14.83;;;;;;;-6.95;91.86;93460.88;5030222;28;20217;-75
2024/01/23 05:56:41;;;;;;;16.87;15.37;;;;;;;-7.03;91.23;93452.41;5029318;28;20237;-74
2024/01/23 05:59:07;;;;;;;18.57;16.67;;;;;;;-7.10;91.59;93429.44;5024249;28;20198;-76
2024/01/23 06:01:33;;;;;;;18.17;16.40;;;;;;;-7.01;92.35;93445.47;5029607;28;20230;-75
2024/01/23 06:03:59;;;;;;;21.57;15.60;;;;;;;-7.22;92.18;93427.31;5030448;28;20175;-74
2024/01/23 06:06:25;;;;;;;17.73;16.13;;;;;;;-7.06;92.10;93427.34;5029722;28;20189;-75
2024/01/23 06:08:50;;;;;;;17.90;16.10;;;;;;;-6.86;91.43;93444.72;5030301;28;20191;-75
2024/01/23 06:11:16;;;;;;;27.33;19.20;;;;;;;-6.82;89.63;93440.13;5030751;28;20175;-76
2024/01/23 06:13:41;;;;;;;24.10;18.87;;;;;;;-6.79;88.73;93439.81;5031515;28;20218;-76
2024/01/23 06:16:07;;;;;;;33.37;23.30;;;;;;;-6.74;89.55;93435.09;5031017;28;20182;-74
2024/01/23 06:18:32;;;;;;;29.37;22.03;;;;;;;-6.81;89.36;93441.72;5030594;28;20302;-75
2024/01/23 06:21:00;;;;;;;29.30;21.77;;;;;;;-6.78;90.02;93423.63;5030665;28;20194;-75
2024/01/23 06:23:25;;;;;;;28.60;22.70;;;;;;;-6.83;90.61;93453.75;5025091;28;20253;-75
2024/01/23 06:25:51;;;;;;;28.63;19.97;;;;;;;-6.76;89.89;93421.75;5030650;28;20542;-77
2024/01/23 06:28:16;;;;;;;23.17;19.17;;;;;;;-6.75;90.21;93446.16;5030261;28;20233;-76
2024/01/23 06:30:42;;;;;;;35.53;22.23;;;;;;;-6.39;89.07;93467.81;5046078;28;20190;-76
2024/01/23 06:33:08;;;;;;;28.33;22.63;;;;;;;-6.90;90.23;93468.00;5030462;28;20210;-75
2024/01/23 06:35:33;;;;;;;30.43;21.23;;;;;;;-6.73;90.10;93465.38;5029633;28;20183;-76
2024/01/23 06:37:58;;;;;;;29.80;22.60;;;;;;;-6.63;89.80;93485.56;5030269;28;21001;-74
2024/01/23 06:40:24;;;;;;;45.23;31.07;;;;;;;-6.66;89.70;93465.53;5028198;28;20708;-76
2024/01/23 06:42:49;;;;;;;45.27;31.17;;;;;;;-6.71;88.97;93493.16;5028769;28;20221;-77
2024/01/23 06:45:14;;;;;;;63.57;35.00;;;;;;;-6.81;90.50;93487.38;5029875;28;21111;-77
2024/01/23 06:47:40;;;;;;;72.20;36.57;;;;;;;-6.83;90.19;93499.44;5029416;28;20241;-75
2024/01/23 06:50:06;;;;;;;80.40;45.67;;;;;;;-6.70;90.12;93504.88;5029576;28;20199;-75
2024/01/23 06:52:31;;;;;;;53.77;33.83;;;;;;;-6.84;90.87;93506.28;5028441;28;20430;-77
2024/01/23 06:54:57;;;;;;;57.40;36.43;;;;;;;-6.93;91.37;93481.00;5026272;28;20218;-83
2024/01/23 06:57:22;;;;;;;53.87;30.50;;;;;;;-6.47;91.67;93510.97;5028628;28;20230;-84
2024/01/23 06:59:47;;;;;;;55.37;31.03;;;;;;;-6.74;91.05;93488.38;5029249;28;20249;-81
2024/01/23 07:02:13;;;;;;;53.17;30.07;;;;;;;-6.61;92.38;93509.03;5028608;28;20222;-78
2024/01/23 07:04:40;;;;;;;55.10;29.63;;;;;;;-6.25;91.59;93501.97;5029224;28;20206;-80
2024/01/23 07:07:05;;;;;;;53.57;31.07;;;;;;;-6.34;92.14;93503.72;5029136;28;20230;-74
2024/01/23 07:09:31;;;;;;;51.77;28.97;;;;;;;-6.12;92.24;93475.16;5044267;28;20197;-73
2024/01/23 07:11:56;;;;;;;53.40;32.20;;;;;;;-6.02;92.50;93500.44;5028919;28;20238;-75
2024/01/23 07:14:22;;;;;;;47.37;28.37;;;;;;;-5.64;91.02;93500.56;5028706;28;20210;-74
2024/01/23 07:16:47;;;;;;;44.60;29.00;;;;;;;-5.62;90.45;93492.75;5028760;28;20233;-74
2024/01/23 07:19:12;;;;;;;50.50;30.57;;;;;;;-5.79;90.43;93481.00;5028896;28;20195;-74
2024/01/23 07:21:40;;;;;;;53.33;30.23;;;;;;;-5.83;90.66;93467.06;5028191;28;20230;-74
2024/01/23 07:24:06;;;;;;;52.47;29.90;;;;;;;-5.91;91.18;93452.59;5027706;28;20190;-75
2024/01/23 07:26:32;;;;;;;41.77;28.10;;;;;;;-5.84;91.31;93453.56;5028249;28;20285;-73
2024/01/23 07:28:57;;;;;;;45.73;29.80;;;;;;;-5.64;91.14;93449.69;5029042;28;20281;-75
2024/01/23 07:31:22;;;;;;;36.40;26.93;;;;;;;-5.48;90.38;93464.91;5028165;28;20179;-74
2024/01/23 07:33:48;;;;;;;47.43;28.37;;;;;;;-5.09;89.68;93487.91;5028280;28;20218;-74
2024/01/23 07:36:13;;;;;;;48.00;29.10;;;;;;;-5.31;89.27;93488.59;5026805;28;20190;-73
2024/01/23 07:38:38;;;;;;;49.50;29.63;;;;;;;-5.29;89.78;93497.63;5028352;28;20250;-73
2024/01/23 07:41:04;;;;;;;44.23;27.60;;;;;;;-5.24;90.17;93487.78;5028657;28;20195;-73
2024/01/23 07:43:29;;;;;;;50.93;30.43;;;;;;;-4.95;89.81;93500.72;5027544;28;20262;-75
2024/01/23 07:45:55;;;;;;;54.23;29.63;;;;;;;-4.68;89.50;93496.97;5028202;28;20230;-73
2024/01/23 07:48:20;;;;;;;55.37;33.40;;;;;;;-4.46;87.92;93501.31;5028678;28;20222;-73
2024/01/23 07:50:46;;;;;;;60.23;34.00;;;;;;;-4.84;88.19;93491.16;5028249;28;20189;-75
2024/01/23 07:53:12;;;;;;;79.63;41.80;;;;;;;-5.47;91.49;93497.03;5027560;28;20219;-73
2024/01/23 07:55:37;;;;;;;59.57;35.50;;;;;;;-5.30;94.09;93513.88;5028466;28;20182;-72
2024/01/23 07:58:03;;;;;;;71.93;35.57;;;;;;;-5.22;92.08;93515.59;5028362;28;20210;-73
2024/01/23 08:00:28;;;;;;;67.77;35.80;;;;;;;-5.10;91.42;93515.09;5028451;28;20198;-72
2024/01/23 08:02:54;;;;;;;64.93;35.63;;;;;;;-5.04;91.42;93501.72;5027584;28;20868;-72
2024/01/23 08:05:19;;;;;;;62.67;35.20;;;;;;;-4.84;91.27;93498.78;5030943;28;20257;-72
2024/01/23 08:07:44;;;;;;;62.27;35.00;;;;;;;-4.65;90.19;93500.94;5032534;28;20257;-72
2024/01/23 08:10:10;;;;;;;57.53;33.03;;;;;;;-4.39;89.97;93502.22;5033407;28;20187;-72
2024/01/23 08:12:36;;;;;;;60.63;35.13;;;;;;;-4.30;88.23;93497.91;5032655;28;20230;-73
2024/01/23 08:15:02;;;;;;;53.70;35.13;;;;;;;-4.03;87.72;93503.31;5032011;28;20785;-73
2024/01/23 08:17:27;;;;;;;69.10;36.27;;;;;;;-3.90;85.99;93500.19;5032063;28;20227;-72
2024/01/23 08:19:53;;;;;;;74.13;38.93;;;;;;;-4.28;86.32;93485.78;5032398;28;20215;-72
2024/01/23 08:22:18;;;;;;;77.03;39.43;;;;;;;-4.29;86.98;93499.47;5031708;28;20249;-73
2024/01/23 08:24:43;;;;;;;73.57;38.70;;;;;;;-4.37;88.06;93477.38;5031643;28;20202;-72
2024/01/23 08:27:09;;;;;;;66.07;38.60;;;;;;;-4.15;87.77;93496.22;5031355;28;20222;-72
2024/01/23 08:29:34;;;;;;;56.93;34.37;;;;;;;-4.48;86.87;93408.97;5032815;28;20217;-72
2024/01/23 08:32:00;;;;;;;71.70;37.50;;;;;;;-3.60;85.93;93507.78;5032353;28;20254;-73
2024/01/23 08:34:26;;;;;;;69.57;37.90;;;;;;;-3.48;85.25;93505.59;5033096;28;20268;-73
2024/01/23 08:36:51;;;;;;;65.23;34.27;;;;;;;-3.63;85.43;93499.69;5032402;28;20253;-72
2024/01/23 08:39:18;;;;;;;69.80;37.70;;;;;;;-3.68;85.72;93495.09;5032739;28;20186;-73
2024/01/23 08:41:43;;;;;;;94.50;48.60;;;;;;;-4.11;85.62;93502.56;5032299;28;20285;-72
2024/01/23 08:44:09;;;;;;;97.60;49.63;;;;;;;-4.39;86.53;93498.91;5032411;28;20226;-72
2024/01/23 08:46:34;;;;;;;106.73;51.60;;;;;;;-4.13;86.43;93509.59;5032380;28;20222;-73
2024/01/23 08:49:00;;;;;;;101.40;49.73;;;;;;;-4.40;86.35;93512.59;5032751;28;20239;-73
2024/01/23 08:51:26;;;;;;;110.20;51.17;;;;;;;-4.15;86.56;93509.75;5031997;28;20198;-72
2024/01/23 08:53:52;;;;;;;93.87;48.00;;;;;;;-3.87;86.05;93507.50;5031665;28;20210;-72
2024/01/23 08:56:21;;;;;;;104.47;49.70;;;;;;;-4.14;85.82;93508.00;5031563;28;20209;-72
2024/01/23 08:58:47;;;;;;;95.63;48.70;;;;;;;-3.99;85.71;93485.91;5032622;28;20207;-71
2024/01/23 09:01:12;;;;;;;99.40;44.63;;;;;;;-3.68;84.63;93501.94;5031715;28;20252;-73
2024/01/23 09:03:38;;;;;;;101.73;46.07;;;;;;;-3.54;83.60;93502.00;5032699;28;20239;-72
2024/01/23 09:06:09;;;;;;;97.53;48.43;;;;;;;-3.48;83.48;93496.19;5030969;28;20217;-72
2024/01/23 09:08:35;;;;;;;89.40;46.77;;;;;;;-3.63;83.98;93492.03;5031967;28;20225;-73
2024/01/23 09:11:00;;;;;;;95.27;48.80;;;;;;;-3.85;84.64;93482.63;5031831;28;20190;-72
2024/01/23 09:13:29;;;;;;;82.73;40.80;;;;;;;-3.37;84.35;93487.31;5031609;28;20294;-72
2024/01/23 09:15:55;;;;;;;91.97;45.20;;;;;;;-3.28;83.05;93470.19;5047005;28;20896;-73
2024/01/23 09:18:20;;;;;;;87.80;46.40;;;;;;;-3.19;83.30;93485.22;5032056;28;20313;-72
2024/01/23 09:20:45;;;;;;;86.40;42.77;;;;;;;-3.07;84.16;93483.03;5030855;28;21128;-72
2024/01/23 09:23:11;;;;;;;97.53;47.67;;;;;;;-2.96;82.89;93488.53;5031366;28;20226;-72
2024/01/23 09:25:36;;;;;;;87.30;45.30;;;;;;;-2.83;83.30;93486.13;5032097;28;20241;-72
2024/01/23 09:28:02;;;;;;;88.67;45.00;;;;;;;-2.98;83.62;93467.47;5031359;28;20283;-73
2024/01/23 09:30:28;;;;;;;83.43;46.87;;;;;;;-2.81;83.38;93483.41;5031688;28;20866;-72
2024/01/23 09:32:54;;;;;;;88.57;45.73;;;;;;;-2.68;83.95;93474.16;5030200;28;20222;-72
2024/01/23 09:35:19;;;;;;;112.53;52.53;;;;;;;-2.67;83.05;93488.50;5031345;28;20809;-72
2024/01/23 09:37:45;;;;;;;104.67;51.97;;;;;;;-2.86;84.10;93483.94;5031324;28;20219;-72
2024/01/23 09:40:10;;;;;;;103.90;53.13;;;;;;;-2.54;82.62;93472.53;5031651;28;20199;-72
2024/01/23 09:42:38;;;;;;;110.50;55.33;;;;;;;-2.77;83.84;93475.19;5030855;28;20360;-73
2024/01/23 09:45:09;;;;;;;118.93;53.57;;;;;;;-2.49;81.64;93472.81;5031489;28;20198;-73
2024/01/23 09:47:35;;;;;;;112.20;51.63;;;;;;;-2.38;81.67;93454.44;5028682;28;20230;-73
2024/01/23 09:50:02;;;;;;;102.80;52.30;;;;;;;-2.39;82.28;93469.00;5031394;28;20264;-73
2024/01/23 09:52:29;;;;;;;102.13;52.30;;;;;;;-2.32;81.41;93471.63;5031627;28;20289;-72
2024/01/23 09:54:55;;;;;;;104.40;53.10;;;;;;;-2.68;81.42;93427.38;5030513;28;20214;-72
2024/01/23 09:57:21;;;;;;;108.23;52.00;;;;;;;-2.29;80.93;93464.38;5031133;28;20227;-72
2024/01/23 09:59:48;;;;;;;109.63;52.20;;;;;;;-2.35;81.36;93467.66;5031002;28;20187;-72
2024/01/23 10:02:14;;;;;;;96.63;49.37;;;;;;;-2.63;81.19;93451.38;5031039;28;20245;-72
2024/01/23 10:04:40;;;;;;;112.37;49.27;;;;;;;-2.38;84.24;93450.09;5030906;28;20199;-72
2024/01/23 10:07:09;;;;;;;103.97;51.37;;;;;;;-2.22;82.81;93426.88;5030193;28;20266;-71
2024/01/23 10:09:34;;;;;;;104.93;52.73;;;;;;;-2.12;81.07;93447.81;5029941;28;20182;-73
2024/01/23 10:12:00;;;;;;;96.43;48.30;;;;;;;-1.94;80.47;93448.22;5030661;28;20227;-71
2024/01/23 10:14:25;;;;;;;97.80;48.27;;;;;;;-1.82;78.94;93454.41;5030412;28;20211;-73
2024/01/23 10:16:50;;;;;;;101.07;48.97;;;;;;;-1.82;78.77;93444.19;5030892;28;20242;-71
2024/01/23 10:19:16;;;;;;;104.33;51.33;;;;;;;-1.66;78.51;93443.94;5029393;28;20194;-72
2024/01/23 10:21:42;;;;;;;96.73;49.97;;;;;;;-1.68;78.54;93440.75;5029523;28;20222;-73
2024/01/23 10:24:07;;;;;;;106.87;52.47;;;;;;;-1.45;78.22;93439.75;5029612;28;20189;-72
2024/01/23 10:26:33;;;;;;;104.53;52.97;;;;;;;-1.67;78.20;93426.97;5029226;28;20231;-73
2024/01/23 10:29:01;;;;;;;98.13;53.10;;;;;;;-1.60;78.71;93405.78;5029046;28;20225;-71
2024/01/23 10:31:27;;;;;;;105.90;54.77;;;;;;;-1.49;78.80;93415.50;5029216;28;20230;-71
2024/01/23 10:33:52;;;;;;;106.23;52.27;;;;;;;-1.51;78.67;93407.22;5029499;28;20226;-71
2024/01/23 10:36:18;;;;;;;126.33;58.47;;;;;;;-1.26;78.74;93410.94;5029124;28;20286;-70
2024/01/23 10:38:43;;;;;;;128.73;61.77;;;;;;;-1.23;77.81;93408.00;5029587;28;20194;-71
2024/01/23 10:41:11;;;;;;;142.60;64.03;;;;;;;-1.06;78.29;93416.97;5029465;28;20178;-69
2024/01/23 10:43:38;;;;;;;134.07;64.70;;;;;;;-1.24;77.77;93403.84;5028336;28;20227;-70
2024/01/23 10:46:03;;;;;;;139.03;65.93;;;;;;;-1.05;77.66;93403.97;5029240;28;20606;-71
2024/01/23 10:48:33;;;;;;;148.83;69.07;;;;;;;-0.98;76.87;93404.00;5029324;28;20207;-71
2024/01/23 10:51:06;;;;;;;140.73;67.30;;;;;;;-0.88;76.40;93384.72;5028734;28;20194;-72
2024/01/23 10:53:43;;;;;;;148.97;67.57;;;;;;;-0.84;75.02;93405.66;5021610;28;20227;-73
2024/01/23 10:56:13;;;;;;;152.60;66.90;;;;;;;-1.07;75.57;93380.28;5025338;28;20198;-72
2024/01/23 10:58:41;;;;;;;134.33;68.97;;;;;;;-0.96;76.00;93394.34;5028695;28;20203;-72
2024/01/23 11:01:09;;;;;;;147.87;67.27;;;;;;;-0.71;75.99;93380.84;5022581;28;20195;-72
2024/01/23 11:03:35;;;;;;;128.33;64.67;;;;;;;-0.83;75.23;93384.97;5028582;28;20210;-72
2024/01/23 11:06:22;;;;;;;130.87;67.60;;;;;;;-0.87;75.43;93359.91;5029032;28;20275;-72
2024/01/23 11:09:04;;;;;;;137.63;66.47;;;;;;;-0.72;76.04;93376.72;5027713;28;20211;-72
2024/01/23 11:11:41;;;;;;;138.17;64.17;;;;;;;-0.42;74.56;93383.09;5023220;28;20190;-71